Time;durP1;ratioP1;P1;durP2;ratioP2;P2;SDS_P1;SDS_P2;PMS_P1;PMS_P2;Temp;Humidity;BMP_temperature;BMP_pressure;BME280_temperature;BME280_humidity;BME280_pressure;Samples;Min_cycle;Max_cycle;Signal;HPM_P1;HPM_P2
2023/09/13 00:01:16;;;;;;;3.95;2.33;;;22.40;99.90;;;;;;5056553;28;20043;-81
2023/09/13 00:03:41;;;;;;;5.85;2.35;;;22.40;99.90;;;;;;5057097;28;20025;-81
2023/09/13 00:06:07;;;;;;;3.80;2.40;;;22.30;99.90;;;;;;5057366;28;20107;-80
2023/09/13 00:08:33;;;;;;;4.15;2.70;;;22.30;99.90;;;;;;5056493;28;20021;-82
2023/09/13 00:11:04;;;;;;;4.20;2.15;;;22.30;99.90;;;;;;5074860;28;20035;-82
2023/09/13 00:13:32;;;;;;;6.03;2.58;;;22.30;99.90;;;;;;5074310;28;20031;-80
2023/09/13 00:15:57;;;;;;;5.70;2.60;;;22.30;99.90;;;;;;5056992;28;20056;-80
2023/09/13 00:18:23;;;;;;;3.72;2.40;;;22.30;99.90;;;;;;5056648;28;20138;-81
2023/09/13 00:20:52;;;;;;;3.22;2.30;;;22.20;99.90;;;;;;5074457;28;20037;-82
2023/09/13 00:23:18;;;;;;;6.35;2.67;;;22.20;99.90;;;;;;5056490;28;20028;-81
2023/09/13 00:25:44;;;;;;;3.95;2.05;;;22.20;99.90;;;;;;5074665;28;20069;-81
2023/09/13 00:28:10;;;;;;;4.57;2.67;;;22.20;99.90;;;;;;5056943;28;20385;-80
2023/09/13 00:30:35;;;;;;;4.47;2.47;;;22.20;99.90;;;;;;5056552;28;20029;-80
2023/09/13 00:33:01;;;;;;;4.03;2.45;;;22.10;99.90;;;;;;5056895;28;20032;-80
2023/09/13 00:35:27;;;;;;;4.40;2.55;;;22.10;99.90;;;;;;5073939;28;20040;-81
2023/09/13 00:37:52;;;;;;;7.35;2.47;;;22.10;99.90;;;;;;5074400;28;20025;-82
2023/09/13 00:40:18;;;;;;;5.88;2.45;;;22.10;99.90;;;;;;5073266;28;20029;-83
2023/09/13 00:42:44;;;;;;;5.50;2.70;;;22.10;99.90;;;;;;5056955;28;20031;-80
2023/09/13 00:45:10;;;;;;;3.72;2.30;;;22.10;99.90;;;;;;5074251;28;20433;-80
2023/09/13 00:47:36;;;;;;;3.88;2.40;;;22.00;99.90;;;;;;5073945;28;20563;-80
2023/09/13 00:50:03;;;;;;;6.00;2.30;;;22.00;99.90;;;;;;5056493;28;20048;-80
2023/09/13 00:52:29;;;;;;;4.05;2.05;;;22.00;99.90;;;;;;5073462;28;20064;-80
2023/09/13 00:54:55;;;;;;;7.38;2.50;;;21.90;99.90;;;;;;5056036;28;20473;-80
2023/09/13 00:57:22;;;;;;;5.07;2.60;;;22.00;99.90;;;;;;5054476;28;20082;-81
2023/09/13 00:59:48;;;;;;;4.40;2.38;;;21.90;99.90;;;;;;5055432;28;20036;-80
2023/09/13 01:02:14;;;;;;;4.55;2.45;;;21.90;99.90;;;;;;5055535;28;20585;-85
2023/09/13 01:04:39;;;;;;;3.85;2.20;;;21.90;99.90;;;;;;5055281;28;20107;-81
2023/09/13 01:07:08;;;;;;;4.15;2.10;;;21.90;99.90;;;;;;5055803;28;20025;-81
2023/09/13 01:09:34;;;;;;;6.43;2.65;;;21.90;99.90;;;;;;5055674;28;20127;-81
2023/09/13 01:12:00;;;;;;;4.07;2.42;;;21.90;99.90;;;;;;5073504;28;20056;-80
2023/09/13 01:14:26;;;;;;;5.70;2.20;;;21.80;99.90;;;;;;5073077;28;20064;-81
2023/09/13 01:17:00;;;;;;;4.75;2.42;;;21.90;99.90;;;;;;5055737;28;20029;-80
2023/09/13 01:19:53;;;;;;;2.97;2.05;;;21.90;99.90;;;;;;5072568;28;20055;-81
2023/09/13 01:22:52;;;;;;;5.28;2.10;;;21.90;99.90;;;;;;5072852;28;20082;-82
2023/09/13 01:25:39;;;;;;;2.50;2.25;;;21.90;99.90;;;;;;5073133;28;20063;-86
2023/09/13 01:28:23;;;;;;;3.50;1.92;;;21.80;99.90;;;;;;5055868;28;20472;-81
2023/09/13 01:30:49;;;;;;;2.50;2.30;;;21.80;99.90;;;;;;5055438;28;20071;-81
2023/09/13 01:33:15;;;;;;;3.13;2.38;;;21.80;99.90;;;;;;5055614;28;20028;-89
2023/09/13 01:35:40;;;;;;;5.00;2.28;;;21.70;99.90;;;;;;5055602;28;20024;-81
2023/09/13 01:38:06;;;;;;;2.85;1.92;;;21.70;99.90;;;;;;5055464;28;20097;-81
2023/09/13 01:40:35;;;;;;;4.05;2.30;;;21.70;99.90;;;;;;5072725;28;20036;-81
2023/09/13 01:43:03;;;;;;;3.92;2.35;;;21.70;99.90;;;;;;5073375;28;20081;-81
2023/09/13 01:45:32;;;;;;;3.38;2.20;;;21.70;99.90;;;;;;5073052;28;20028;-82
2023/09/13 01:47:59;;;;;;;3.45;2.03;;;21.70;99.90;;;;;;5055972;28;20167;-83
2023/09/13 01:50:25;;;;;;;4.82;2.28;;;21.70;99.90;;;;;;5055048;28;20040;-83
2023/09/13 01:52:50;;;;;;;2.95;1.90;;;21.60;99.90;;;;;;5055515;28;20089;-82
2023/09/13 01:55:16;;;;;;;4.60;2.78;;;21.60;99.90;;;;;;5072383;28;20028;-87
2023/09/13 01:57:41;;;;;;;4.20;2.25;;;21.70;99.90;;;;;;5072980;28;20052;-82
2023/09/13 02:00:08;;;;;;;3.67;2.00;;;21.70;99.90;;;;;;5072403;28;20067;-82
2023/09/13 02:02:33;;;;;;;2.75;1.92;;;21.60;99.90;;;;;;5055144;28;20123;-81
2023/09/13 02:04:59;;;;;;;3.88;1.92;;;21.70;99.90;;;;;;5072254;28;20083;-81
2023/09/13 02:07:24;;;;;;;4.18;1.70;;;21.60;99.90;;;;;;5072988;28;20096;-81
2023/09/13 02:09:52;;;;;;;3.60;2.08;;;21.60;99.90;;;;;;5075745;28;20029;-81
2023/09/13 02:12:17;;;;;;;4.30;1.80;;;21.60;99.90;;;;;;5075239;28;20040;-86
2023/09/13 02:14:43;;;;;;;2.25;1.80;;;21.50;99.90;;;;;;5076683;28;20029;-81
2023/09/13 02:17:09;;;;;;;3.75;1.98;;;21.50;99.90;;;;;;5075737;28;20024;-81
2023/09/13 02:19:35;;;;;;;3.92;1.70;;;21.50;99.90;;;;;;5075414;28;20024;-81
2023/09/13 02:22:01;;;;;;;2.78;1.80;;;21.50;99.90;;;;;;5075703;28;20036;-81
2023/09/13 02:24:26;;;;;;;2.67;1.80;;;21.50;99.90;;;;;;5058487;28;20035;-81
2023/09/13 02:26:56;;;;;;;3.72;1.90;;;21.50;99.90;;;;;;5075901;28;20020;-81
2023/09/13 02:29:22;;;;;;;2.28;1.70;;;21.40;99.90;;;;;;5075097;28;20029;-81
2023/09/13 02:31:47;;;;;;;3.33;1.85;;;21.40;99.90;;;;;;5075319;28;20366;-81
2023/09/13 02:34:13;;;;;;;2.92;1.83;;;21.40;99.90;;;;;;5058785;28;20382;-81
2023/09/13 02:36:39;;;;;;;3.22;1.88;;;21.30;99.90;;;;;;5075929;28;20032;-81
2023/09/13 02:39:04;;;;;;;3.50;1.77;;;21.40;99.90;;;;;;5076374;28;20024;-81
2023/09/13 02:41:30;;;;;;;3.08;1.77;;;21.30;99.90;;;;;;5074771;28;20527;-82
2023/09/13 02:43:55;;;;;;;3.35;1.83;;;21.30;99.90;;;;;;5075420;28;20041;-82
2023/09/13 02:46:21;;;;;;;3.45;2.25;;;21.30;99.90;;;;;;5057943;28;20032;-82
2023/09/13 02:48:47;;;;;;;3.42;1.90;;;21.30;99.90;;;;;;5075238;28;20024;-80
2023/09/13 02:51:13;;;;;;;2.80;1.80;;;21.30;99.90;;;;;;5074946;28;20049;-80
2023/09/13 02:53:39;;;;;;;2.67;1.67;;;21.40;99.90;;;;;;5057783;28;20336;-80
2023/09/13 02:56:06;;;;;;;2.30;1.70;;;21.40;99.90;;;;;;5074874;28;20021;-80
2023/09/13 02:58:32;;;;;;;2.30;1.63;;;21.40;99.90;;;;;;5075492;28;20035;-80
2023/09/13 03:00:58;;;;;;;5.88;1.73;;;21.40;99.90;;;;;;5074740;28;20084;-81
2023/09/13 03:03:24;;;;;;;2.90;1.98;;;21.40;99.90;;;;;;5057605;28;20036;-81
2023/09/13 03:05:49;;;;;;;5.53;1.60;;;21.40;99.90;;;;;;5057684;28;20032;-81
2023/09/13 03:08:15;;;;;;;3.38;1.75;;;21.40;99.90;;;;;;5075452;28;20035;-80
2023/09/13 03:10:40;;;;;;;2.03;1.58;;;21.40;99.90;;;;;;5074021;28;20033;-80
2023/09/13 03:13:06;;;;;;;3.45;1.98;;;21.40;99.90;;;;;;5075561;28;20025;-81
2023/09/13 03:15:32;;;;;;;2.08;1.45;;;21.40;99.90;;;;;;5073796;28;20028;-80
2023/09/13 03:17:58;;;;;;;3.13;1.70;;;21.40;99.90;;;;;;5074234;28;20031;-80
2023/09/13 03:20:24;;;;;;;4.53;1.67;;;21.30;99.90;;;;;;5073151;28;20028;-81
2023/09/13 03:22:50;;;;;;;2.80;1.80;;;21.30;99.90;;;;;;5075381;28;20024;-80
2023/09/13 03:25:15;;;;;;;2.90;1.70;;;21.30;99.90;;;;;;5074447;28;20067;-80
2023/09/13 03:27:41;;;;;;;2.22;1.63;;;21.20;99.90;;;;;;5074674;28;20481;-81
2023/09/13 03:30:07;;;;;;;2.25;1.90;;;21.20;99.90;;;;;;5073969;28;20025;-80
2023/09/13 03:32:32;;;;;;;4.55;1.52;;;21.20;99.90;;;;;;5056747;28;20033;-80
2023/09/13 03:34:58;;;;;;;2.35;1.60;;;21.30;99.90;;;;;;5074025;28;20050;-80
2023/09/13 03:37:24;;;;;;;4.60;1.80;;;21.30;99.90;;;;;;5073448;28;20028;-81
2023/09/13 03:39:49;;;;;;;3.83;1.60;;;21.30;99.90;;;;;;5075090;28;20541;-81
2023/09/13 03:42:15;;;;;;;2.00;1.65;;;21.30;99.90;;;;;;5075051;28;20048;-80
2023/09/13 03:44:40;;;;;;;2.45;1.52;;;21.20;99.90;;;;;;5073484;28;20020;-81
2023/09/13 03:47:06;;;;;;;2.10;1.50;;;21.30;99.90;;;;;;5074851;28;20025;-80
2023/09/13 03:49:31;;;;;;;2.75;1.67;;;21.20;99.90;;;;;;5073143;28;20140;-81
2023/09/13 03:51:57;;;;;;;3.75;2.08;;;21.20;99.90;;;;;;5073284;28;20020;-81
2023/09/13 03:54:23;;;;;;;2.45;2.15;;;21.20;99.90;;;;;;5073712;28;20545;-81
2023/09/13 03:56:48;;;;;;;2.60;1.58;;;21.10;99.90;;;;;;5074431;28;20033;-79
2023/09/13 03:59:14;;;;;;;2.50;1.80;;;21.20;99.90;;;;;;5073905;28;20454;-80
2023/09/13 04:01:39;;;;;;;3.75;1.67;;;21.30;99.90;;;;;;5073587;28;20480;-80
2023/09/13 04:04:05;;;;;;;2.10;1.50;;;21.30;99.90;;;;;;5073580;28;20063;-81
2023/09/13 04:06:31;;;;;;;3.40;1.63;;;21.30;99.90;;;;;;5073246;28;20025;-82
2023/09/13 04:08:56;;;;;;;2.53;1.65;;;21.40;99.90;;;;;;5073801;28;20028;-82
2023/09/13 04:11:22;;;;;;;2.45;1.80;;;21.30;99.90;;;;;;5073127;28;20033;-81
2023/09/13 04:13:48;;;;;;;3.90;1.90;;;21.30;99.90;;;;;;5056205;28;20540;-81
2023/09/13 04:16:16;;;;;;;3.20;1.80;;;21.20;99.90;;;;;;5056839;28;20108;-81
2023/09/13 04:18:41;;;;;;;2.33;1.52;;;21.20;99.90;;;;;;5056467;28;20034;-81
2023/09/13 04:21:07;;;;;;;3.20;1.75;;;21.20;99.90;;;;;;5074392;28;20403;-81
2023/09/13 04:23:32;;;;;;;2.20;1.73;;;21.10;99.90;;;;;;5056338;28;20028;-80
2023/09/13 04:25:58;;;;;;;2.25;1.75;;;21.10;99.90;;;;;;5074262;28;20366;-81
2023/09/13 04:28:24;;;;;;;2.05;1.67;;;21.00;99.90;;;;;;5056095;28;20077;-80
2023/09/13 04:30:49;;;;;;;2.13;1.40;;;21.00;99.90;;;;;;5072831;28;20040;-81
2023/09/13 04:33:15;;;;;;;3.38;1.92;;;21.10;99.90;;;;;;5056296;28;20119;-81
2023/09/13 04:35:40;;;;;;;3.55;1.70;;;21.20;99.90;;;;;;5073974;28;20029;-81
2023/09/13 04:38:06;;;;;;;4.72;1.80;;;21.20;99.90;;;;;;5074105;28;20397;-81
2023/09/13 04:40:32;;;;;;;2.00;1.80;;;21.10;99.90;;;;;;5073904;28;20024;-81
2023/09/13 04:43:06;;;;;;;2.95;1.85;;;21.10;99.90;;;;;;5056508;28;20056;-81
2023/09/13 04:45:33;;;;;;;2.58;1.50;;;21.10;99.90;;;;;;5073713;28;20051;-81
2023/09/13 04:47:58;;;;;;;2.97;2.13;;;21.20;99.90;;;;;;5056687;28;20098;-80
2023/09/13 04:50:24;;;;;;;2.47;1.42;;;21.10;99.90;;;;;;5056239;28;20060;-80
2023/09/13 04:52:50;;;;;;;2.70;1.85;;;21.10;99.90;;;;;;5055548;28;20052;-80
2023/09/13 04:55:18;;;;;;;3.10;1.98;;;21.20;99.90;;;;;;5074048;28;20099;-80
2023/09/13 04:57:44;;;;;;;4.53;2.15;;;21.20;99.90;;;;;;5051040;28;20526;-83
2023/09/13 05:00:11;;;;;;;3.33;1.95;;;21.10;99.90;;;;;;5056202;28;20016;-82
2023/09/13 05:02:37;;;;;;;4.55;2.05;;;21.20;99.90;;;;;;5080436;28;20024;-81
2023/09/13 05:05:04;;;;;;;4.30;2.50;;;21.20;99.90;;;;;;5075821;28;20407;-83
2023/09/13 05:07:29;;;;;;;4.85;1.83;;;21.10;99.90;;;;;;5061334;28;20023;-81
2023/09/13 05:09:55;;;;;;;2.47;1.63;;;21.20;99.90;;;;;;5064136;28;20020;-81
2023/09/13 05:12:22;;;;;;;5.32;2.00;;;21.10;99.90;;;;;;5061838;28;20063;-80
2023/09/13 05:14:48;;;;;;;2.22;1.50;;;21.10;99.90;;;;;;5062200;28;20200;-82
2023/09/13 05:17:13;;;;;;;3.58;1.80;;;21.10;99.90;;;;;;5087048;28;20027;-80
2023/09/13 05:19:39;;;;;;;2.40;1.65;;;21.00;99.90;;;;;;5080808;28;20466;-80
2023/09/13 05:22:05;;;;;;;3.50;1.80;;;21.00;99.90;;;;;;5072022;28;20480;-80
2023/09/13 05:24:30;;;;;;;5.25;2.25;;;21.00;99.90;;;;;;5065448;28;20026;-81
2023/09/13 05:26:56;;;;;;;3.42;1.90;;;20.90;99.90;;;;;;5068114;28;20027;-80
2023/09/13 05:29:22;;;;;;;3.80;1.52;;;20.90;99.90;;;;;;5058971;28;20032;-81
2023/09/13 05:31:49;;;;;;;4.80;1.75;;;20.80;99.90;;;;;;5064802;28;20029;-80
2023/09/13 05:34:14;;;;;;;3.17;1.92;;;20.80;99.90;;;;;;5060320;28;20017;-81
2023/09/13 05:36:41;;;;;;;2.92;2.10;;;20.70;99.90;;;;;;5066930;28;20354;-81
2023/09/13 05:39:07;;;;;;;4.22;2.97;;;20.70;99.90;;;;;;5082075;28;20385;-80
2023/09/13 05:41:33;;;;;;;4.72;2.28;;;20.70;99.90;;;;;;5063107;28;20133;-82
2023/09/13 05:43:58;;;;;;;4.70;2.13;;;20.70;99.90;;;;;;5074054;28;20709;-80
2023/09/13 05:46:24;;;;;;;3.38;2.00;;;20.70;99.90;;;;;;5071098;28;20334;-81
2023/09/13 05:48:50;;;;;;;3.78;1.95;;;20.70;99.90;;;;;;5085859;28;20487;-84
2023/09/13 05:51:16;;;;;;;2.53;1.80;;;20.70;99.90;;;;;;5079700;28;20028;-80
2023/09/13 05:53:42;;;;;;;1.98;1.73;;;20.70;99.90;;;;;;5087994;28;20024;-80
2023/09/13 05:56:11;;;;;;;2.80;1.88;;;20.70;99.90;;;;;;5085900;28;20112;-80
2023/09/13 05:58:37;;;;;;;2.50;1.67;;;20.80;99.90;;;;;;5069623;28;20025;-82
2023/09/13 06:01:02;;;;;;;4.75;2.67;;;20.80;99.90;;;;;;5066974;28;20032;-80
2023/09/13 06:03:30;;;;;;;3.08;2.47;;;20.80;99.90;;;;;;5066324;28;20023;-81
2023/09/13 06:05:56;;;;;;;6.90;2.45;;;20.80;99.90;;;;;;5066623;28;20020;-81
2023/09/13 06:08:22;;;;;;;6.93;2.30;;;20.80;99.90;;;;;;5085632;28;20024;-79
2023/09/13 06:10:48;;;;;;;8.75;3.00;;;20.80;99.90;;;;;;5062628;28;20036;-80
2023/09/13 06:13:15;;;;;;;4.97;2.80;;;20.80;99.90;;;;;;5066457;28;20031;-81
2023/09/13 06:15:41;;;;;;;5.88;3.00;;;20.80;99.90;;;;;;5071193;28;20020;-81
2023/09/13 06:18:07;;;;;;;4.35;2.78;;;20.70;99.90;;;;;;5068068;28;20032;-80
2023/09/13 06:20:32;;;;;;;4.90;2.45;;;20.70;99.90;;;;;;5061691;28;20021;-83
2023/09/13 06:22:58;;;;;;;3.00;2.30;;;20.70;99.90;;;;;;5082521;28;20029;-82
2023/09/13 06:25:24;;;;;;;4.32;2.10;;;20.70;99.90;;;;;;5072928;28;20037;-80
2023/09/13 06:27:50;;;;;;;6.43;2.28;;;20.70;99.90;;;;;;5061538;28;20350;-80
2023/09/13 06:30:15;;;;;;;3.58;2.35;;;20.80;99.90;;;;;;5081026;28;20028;-82
2023/09/13 06:32:41;;;;;;;4.65;2.65;;;20.80;99.90;;;;;;5062220;28;20024;-82
2023/09/13 06:35:11;;;;;;;6.15;2.55;;;20.80;99.90;;;;;;5067409;28;20024;-83
2023/09/13 06:37:36;;;;;;;4.10;2.65;;;20.80;99.90;;;;;;5092920;28;20048;-82
2023/09/13 06:40:03;;;;;;;6.03;3.38;;;20.70;99.90;;;;;;5086803;28;20051;-81
2023/09/13 06:42:29;;;;;;;3.25;2.15;;;20.80;99.90;;;;;;5064287;28;20102;-81
2023/09/13 06:44:54;;;;;;;5.57;2.33;;;20.70;99.90;;;;;;5072727;28;20024;-82
2023/09/13 06:47:20;;;;;;;6.70;2.20;;;20.80;99.90;;;;;;5069583;28;20024;-84
2023/09/13 06:49:46;;;;;;;4.63;2.55;;;20.80;99.90;;;;;;5085807;28;20040;-81
2023/09/13 06:52:11;;;;;;;5.55;2.40;;;20.80;99.90;;;;;;5063534;28;20032;-81
2023/09/13 06:54:37;;;;;;;2.75;2.28;;;20.80;99.90;;;;;;5070872;28;20024;-81
2023/09/13 06:57:05;;;;;;;3.50;2.50;;;20.70;99.90;;;;;;5089789;28;20127;-83
2023/09/13 06:59:32;;;;;;;4.43;2.50;;;20.70;99.90;;;;;;5068092;28;20044;-82
2023/09/13 07:01:58;;;;;;;5.25;2.65;;;20.80;99.90;;;;;;5066098;28;20051;-80
2023/09/13 07:04:23;;;;;;;4.03;2.45;;;20.80;99.90;;;;;;5081360;28;20024;-81
2023/09/13 07:06:49;;;;;;;4.57;2.50;;;20.80;99.90;;;;;;5088376;28;20032;-81
2023/09/13 07:09:15;;;;;;;6.10;2.72;;;20.80;99.90;;;;;;5078179;28;20111;-81
2023/09/13 07:11:40;;;;;;;5.05;2.88;;;20.80;99.90;;;;;;5085867;28;20063;-80
2023/09/13 07:14:06;;;;;;;5.63;2.90;;;20.90;99.90;;;;;;5085205;28;20031;-82
2023/09/13 07:16:31;;;;;;;6.03;2.58;;;20.90;99.90;;;;;;5078389;28;20377;-82
2023/09/13 07:18:57;;;;;;;4.97;3.13;;;20.80;99.90;;;;;;5079226;28;20025;-80
2023/09/13 07:21:24;;;;;;;3.95;2.65;;;20.90;99.90;;;;;;5064598;28;20023;-80
2023/09/13 07:23:51;;;;;;;5.80;2.55;;;20.90;99.90;;;;;;5059075;28;20481;-81
2023/09/13 07:26:16;;;;;;;5.03;2.83;;;20.90;99.90;;;;;;5060888;28;20107;-81
2023/09/13 07:28:42;;;;;;;4.10;2.60;;;21.00;99.90;;;;;;5079724;28;20111;-82
2023/09/13 07:31:08;;;;;;;5.65;2.90;;;21.00;99.90;;;;;;5082223;28;20044;-82
2023/09/13 07:33:34;;;;;;;4.53;2.90;;;21.00;99.90;;;;;;5081082;28;20024;-86
2023/09/13 07:35:59;;;;;;;4.38;3.00;;;21.10;99.90;;;;;;5064816;28;20055;-82
2023/09/13 07:38:25;;;;;;;6.50;3.00;;;21.10;99.90;;;;;;5063411;28;20381;-82
2023/09/13 07:40:51;;;;;;;3.55;2.75;;;21.10;99.90;;;;;;5073532;28;20457;-81
2023/09/13 07:43:16;;;;;;;5.13;2.65;;;21.10;99.90;;;;;;5081714;28;20471;-81
2023/09/13 07:45:42;;;;;;;5.57;2.88;;;21.10;99.90;;;;;;5079926;28;20028;-80
2023/09/13 07:48:08;;;;;;;5.93;2.72;;;21.10;99.90;;;;;;5065307;28;21212;-81
2023/09/13 07:50:37;;;;;;;5.82;2.55;;;21.10;99.90;;;;;;5083243;28;20045;-84
2023/09/13 07:53:03;;;;;;;5.60;2.50;;;21.10;99.90;;;;;;5068392;28;20034;-82
2023/09/13 07:55:29;;;;;;;5.47;2.67;;;21.00;99.90;;;;;;5066849;28;20028;-82
2023/09/13 07:57:55;;;;;;;4.28;2.40;;;21.10;99.90;;;;;;5081154;28;20028;-81
2023/09/13 08:00:20;;;;;;;5.50;2.55;;;21.10;99.90;;;;;;5065755;28;20028;-81
2023/09/13 08:02:47;;;;;;;4.93;2.40;;;21.10;99.90;;;;;;5059990;28;20024;-81
2023/09/13 08:05:13;;;;;;;4.40;2.67;;;21.10;99.90;;;;;;5058229;28;20032;-81
2023/09/13 08:07:38;;;;;;;5.40;2.75;;;21.10;99.90;;;;;;5058426;28;20105;-80
2023/09/13 08:10:04;;;;;;;4.22;2.45;;;21.00;99.90;;;;;;5064044;28;20065;-79
2023/09/13 08:12:30;;;;;;;5.07;2.50;;;21.10;99.90;;;;;;5081672;28;20077;-80
2023/09/13 08:14:56;;;;;;;3.53;2.75;;;21.10;99.90;;;;;;5088458;28;20476;-81
2023/09/13 08:17:22;;;;;;;5.50;2.53;;;21.10;99.90;;;;;;5074841;28;20029;-85
2023/09/13 08:19:49;;;;;;;6.80;2.50;;;21.10;99.90;;;;;;5067680;28;20024;-82
2023/09/13 08:22:14;;;;;;;5.60;2.95;;;21.20;99.90;;;;;;5065226;28;20032;-82
2023/09/13 08:24:40;;;;;;;6.72;2.70;;;21.20;99.90;;;;;;5061703;28;20491;-81
2023/09/13 08:27:05;;;;;;;4.97;2.30;;;21.30;99.90;;;;;;5075227;28;20060;-83
2023/09/13 08:29:32;;;;;;;4.00;2.80;;;21.40;99.90;;;;;;5065170;28;20524;-83
2023/09/13 08:31:57;;;;;;;5.45;2.78;;;21.50;99.90;;;;;;5067317;28;20308;-83
2023/09/13 08:34:23;;;;;;;5.65;3.08;;;21.60;99.90;;;;;;5082396;28;20027;-84
2023/09/13 08:36:50;;;;;;;5.53;3.00;;;21.60;99.90;;;;;;5064485;28;20129;-82
2023/09/13 08:39:15;;;;;;;7.07;2.58;;;21.60;99.90;;;;;;5062870;28;20073;-82
2023/09/13 08:41:49;;;;;;;4.53;2.28;;;21.60;99.90;;;;;;5082127;28;20037;-86
2023/09/13 08:44:21;;;;;;;4.57;2.50;;;21.50;99.90;;;;;;5075656;28;20036;-89
2023/09/13 08:46:49;;;;;;;5.22;2.60;;;21.50;99.90;;;;;;5080379;28;20024;-83
2023/09/13 08:49:16;;;;;;;3.53;2.30;;;21.60;99.90;;;;;;5062415;28;20041;-88
2023/09/13 08:51:44;;;;;;;3.88;2.97;;;21.60;99.90;;;;;;5064475;28;20020;-86
2023/09/13 08:54:11;;;;;;;4.10;2.45;;;21.60;99.90;;;;;;5069061;28;20028;-86
2023/09/13 08:56:38;;;;;;;6.22;2.90;;;21.70;99.90;;;;;;5056040;28;20032;-88
2023/09/13 08:59:04;;;;;;;3.78;2.90;;;21.80;99.90;;;;;;5059037;28;20043;-87
2023/09/13 09:01:31;;;;;;;5.30;2.72;;;21.80;99.90;;;;;;5081414;28;20037;-82
2023/09/13 09:03:57;;;;;;;4.55;2.72;;;21.80;99.90;;;;;;5060566;28;20040;-87
2023/09/13 09:06:23;;;;;;;4.30;2.42;;;21.80;99.90;;;;;;5059690;28;20086;-81
2023/09/13 09:08:50;;;;;;;4.78;2.67;;;21.90;99.90;;;;;;5057690;28;20033;-80
2023/09/13 09:11:21;;;;;;;3.95;3.17;;;21.80;99.90;;;;;;5077735;28;20024;-80
2023/09/13 09:13:48;;;;;;;4.70;3.03;;;21.80;99.90;;;;;;5061766;28;20029;-82
2023/09/13 09:16:16;;;;;;;4.18;3.00;;;21.70;99.90;;;;;;5074327;28;20040;-81
2023/09/13 09:18:43;;;;;;;4.68;3.58;;;21.70;99.90;;;;;;5084197;28;20033;-80
2023/09/13 09:21:10;;;;;;;5.55;3.08;;;21.70;99.90;;;;;;5055591;28;20040;-80
2023/09/13 09:23:38;;;;;;;3.92;2.90;;;21.80;99.90;;;;;;5067674;28;20032;-80
2023/09/13 09:26:04;;;;;;;4.88;3.00;;;21.90;99.90;;;;;;5078389;28;20125;-78
2023/09/13 09:28:31;;;;;;;5.25;3.40;;;22.00;99.90;;;;;;5079283;28;20456;-80
2023/09/13 09:31:00;;;;;;;8.95;3.55;;;22.00;99.90;;;;;;5077506;28;20036;-80
2023/09/13 09:33:28;;;;;;;9.00;2.85;;;22.20;99.90;;;;;;5063388;28;20071;-80
2023/09/13 09:35:55;;;;;;;6.45;3.55;;;22.20;99.90;;;;;;5058222;28;20025;-83
2023/09/13 09:38:22;;;;;;;5.32;3.45;;;22.30;99.90;;;;;;5060576;28;20033;-84
2023/09/13 09:40:49;;;;;;;6.07;3.10;;;22.30;99.90;;;;;;5059019;28;20107;-84
2023/09/13 09:43:15;;;;;;;4.63;3.25;;;22.40;99.90;;;;;;5064154;28;20033;-83
2023/09/13 09:45:40;;;;;;;4.20;3.13;;;22.40;99.90;;;;;;5062651;28;20067;-82
2023/09/13 09:48:07;;;;;;;4.53;3.13;;;22.40;99.90;;;;;;5077948;28;20033;-83
2023/09/13 09:50:32;;;;;;;4.53;3.15;;;22.40;99.90;;;;;;5060221;28;20143;-88
2023/09/13 09:52:58;;;;;;;4.95;3.30;;;22.40;99.90;;;;;;5079901;28;20520;-81
2023/09/13 09:55:25;;;;;;;6.53;3.53;;;22.30;99.90;;;;;;5080706;28;20428;-79
2023/09/13 09:57:52;;;;;;;5.95;3.70;;;22.30;99.90;;;;;;5061331;28;20032;-80
2023/09/13 10:00:18;;;;;;;5.03;3.33;;;22.30;99.90;;;;;;5076877;28;20043;-82
2023/09/13 10:02:45;;;;;;;4.45;3.35;;;22.30;99.90;;;;;;5065290;28;20033;-81
2023/09/13 10:05:16;;;;;;;5.32;3.05;;;22.20;99.90;;;;;;5056447;28;20056;-81
2023/09/13 10:07:55;;;;;;;5.85;3.65;;;22.20;99.90;;;;;;5062778;28;20063;-82
2023/09/13 10:10:35;;;;;;;5.22;3.60;;;22.30;99.90;;;;;;5063778;28;20028;-84
2023/09/13 10:13:00;;;;;;;6.45;4.00;;;22.40;99.90;;;;;;5062309;28;20043;-84
2023/09/13 10:15:27;;;;;;;6.40;3.58;;;22.50;99.90;;;;;;5065229;28;20025;-84
2023/09/13 10:17:55;;;;;;;6.88;3.60;;;22.50;99.90;;;;;;5060646;28;20132;-81
2023/09/13 10:20:23;;;;;;;4.70;3.40;;;22.40;99.90;;;;;;5061935;28;20047;-83
2023/09/13 10:22:50;;;;;;;6.07;3.20;;;22.50;99.90;;;;;;5059226;28;20033;-85
2023/09/13 10:25:18;;;;;;;4.88;3.33;;;22.50;99.90;;;;;;5055470;28;20032;-92
2023/09/13 10:27:49;;;;;;;5.20;3.40;;;22.60;99.90;;;;;;5072214;28;20028;-88
2023/09/13 10:30:24;;;;;;;5.95;3.40;;;22.60;99.90;;;;;;5061455;28;20036;-82
2023/09/13 10:32:57;;;;;;;6.63;3.47;;;22.80;99.90;;;;;;5062556;28;20450;-83
2023/09/13 10:35:24;;;;;;;8.35;3.38;;;22.90;99.90;;;;;;5067925;28;20039;-84
2023/09/13 10:37:52;;;;;;;4.55;3.28;;;23.00;99.90;;;;;;5069271;28;20039;-85
2023/09/13 10:40:23;;;;;;;7.45;3.28;;;23.10;99.90;;;;;;5069615;28;20025;-81
2023/09/13 10:42:49;;;;;;;4.45;2.90;;;23.10;99.90;;;;;;5063595;28;20024;-83
2023/09/13 10:45:18;;;;;;;5.57;3.15;;;23.20;99.90;;;;;;5083355;28;20051;-85
2023/09/13 10:47:46;;;;;;;5.43;2.97;;;23.30;99.90;;;;;;5063918;28;20021;-80
2023/09/13 10:50:14;;;;;;;4.47;3.03;;;23.30;99.90;;;;;;5086914;28;20480;-83
2023/09/13 10:52:42;;;;;;;6.70;3.63;;;23.40;99.90;;;;;;5068185;28;20059;-83
2023/09/13 10:55:09;;;;;;;4.82;3.28;;;23.50;99.90;;;;;;5067525;28;20056;-87
2023/09/13 10:57:37;;;;;;;5.63;2.80;;;23.40;99.90;;;;;;5064004;28;20029;-85
2023/09/13 11:00:12;;;;;;;4.93;2.97;;;23.40;99.90;;;;;;5061376;28;20024;-83
2023/09/13 11:02:43;;;;;;;7.90;3.40;;;23.40;99.90;;;;;;5063502;28;20123;-83
2023/09/13 11:05:13;;;;;;;5.53;3.17;;;23.30;99.90;;;;;;5063195;28;20121;-82
2023/09/13 11:07:45;;;;;;;7.57;2.90;;;23.30;99.90;;;;;;5082153;28;20112;-81
2023/09/13 11:10:13;;;;;;;3.97;2.67;;;23.20;99.90;;;;;;5080948;28;20025;-80
2023/09/13 11:12:39;;;;;;;6.38;2.90;;;23.20;99.90;;;;;;5067191;28;20031;-80
2023/09/13 11:15:12;;;;;;;6.68;3.15;;;23.10;99.90;;;;;;5085836;28;20089;-82
2023/09/13 11:17:39;;;;;;;6.82;2.90;;;23.00;99.90;;;;;;5066322;28;20029;-84
2023/09/13 11:20:36;;;;;;;4.68;3.20;;;22.90;99.90;;;;;;5066489;28;20028;-81
2023/09/13 11:23:18;;;;;;;7.38;3.08;;;22.90;99.90;;;;;;5082309;28;20503;-82
2023/09/13 11:25:55;;;;;;;4.13;3.08;;;22.90;99.90;;;;;;5060928;28;20020;-82
2023/09/13 11:28:36;;;;;;;4.18;2.78;;;23.00;99.90;;;;;;5065049;28;20039;-82
2023/09/13 11:31:03;;;;;;;;;;;23.00;99.90;;;;;;5083458;28;20036;-81
2023/09/13 11:33:29;;;;;;;5.72;2.95;;;23.00;99.90;;;;;;5088770;28;20284;-81
2023/09/13 11:35:59;;;;;;;4.00;2.83;;;23.10;99.90;;;;;;5064898;28;20020;-84
2023/09/13 11:38:25;;;;;;;4.95;2.45;;;23.20;99.90;;;;;;5063833;28;20362;-80
2023/09/13 11:40:55;;;;;;;6.72;3.05;;;23.30;99.90;;;;;;5080568;28;20362;-81
2023/09/13 11:43:22;;;;;;;4.30;2.90;;;23.30;99.90;;;;;;5061687;28;20115;-80
2023/09/13 11:45:50;;;;;;;4.82;3.13;;;23.30;99.90;;;;;;5082079;28;20021;-80
2023/09/13 11:48:39;;;;;;;4.38;3.08;;;23.20;99.90;;;;;;5081605;28;20028;-81
2023/09/13 11:51:12;;;;;;;3.53;2.63;;;23.20;99.90;;;;;;5067032;28;20439;-80
2023/09/13 11:53:39;;;;;;;6.13;2.70;;;23.00;99.90;;;;;;5063202;28;20060;-82
2023/09/13 11:56:06;;;;;;;4.97;2.85;;;23.00;99.90;;;;;;5065287;28;20028;-82
2023/09/13 11:58:38;;;;;;;7.10;2.80;;;23.00;99.90;;;;;;5060725;28;20035;-81
2023/09/13 12:01:06;;;;;;;4.28;2.90;;;22.90;99.90;;;;;;5074227;28;20085;-83
2023/09/13 12:03:36;;;;;;;5.20;3.15;;;22.90;99.90;;;;;;5060483;28;20028;-83
2023/09/13 12:06:03;;;;;;;6.03;3.10;;;22.90;99.90;;;;;;5060275;28;20035;-82
2023/09/13 12:08:29;;;;;;;5.80;2.67;;;22.90;99.90;;;;;;5078696;28;20024;-80
2023/09/13 12:11:00;;;;;;;5.75;2.50;;;22.90;99.90;;;;;;5065055;28;20025;-84
2023/09/13 12:13:47;;;;;;;3.55;2.50;;;22.90;99.90;;;;;;5063658;28;20107;-84
2023/09/13 12:16:13;;;;;;;8.80;3.28;;;22.90;99.90;;;;;;5060619;28;20028;-84
2023/09/13 12:18:41;;;;;;;4.10;2.72;;;22.90;99.90;;;;;;5063336;28;20036;-85
2023/09/13 12:21:08;;;;;;;5.40;2.75;;;23.00;99.90;;;;;;5064952;28;20032;-84
2023/09/13 12:23:36;;;;;;;3.75;2.50;;;23.10;99.90;;;;;;5058406;28;20139;-83
2023/09/13 12:26:05;;;;;;;4.57;2.58;;;23.30;99.90;;;;;;5081455;28;20024;-82
2023/09/13 12:28:33;;;;;;;3.88;2.30;;;23.40;99.90;;;;;;5081595;28;20348;-82
2023/09/13 12:30:59;;;;;;;7.03;2.20;;;23.40;99.90;;;;;;5062693;28;20051;-83
2023/09/13 12:33:25;;;;;;;5.13;2.20;;;23.40;99.90;;;;;;5063808;28;20024;-81
2023/09/13 12:35:51;;;;;;;4.20;2.20;;;23.40;99.90;;;;;;5076296;28;20056;-82
2023/09/13 12:38:19;;;;;;;3.75;2.00;;;23.30;99.90;;;;;;5063471;28;20023;-81
2023/09/13 12:40:54;;;;;;;2.90;1.80;;;23.30;99.90;;;;;;5063405;28;20020;-81
2023/09/13 12:43:28;;;;;;;2.60;1.88;;;23.40;99.90;;;;;;5057995;28;20043;-81
2023/09/13 12:45:55;;;;;;;4.07;1.95;;;23.40;99.90;;;;;;5084481;28;20473;-82
2023/09/13 12:48:21;;;;;;;2.58;1.90;;;23.40;99.90;;;;;;5060658;28;20035;-81